Terminal Aerodrome Forecast
Issued by NWS

Home | Current Version | Previous Version | Text Only | Print | Product List | Glossary On
Versions: 1 2 3 4 5 6 7 8 9 10 11 12 13 14 15 16 17 18 19 20 21 22 23 24 25 26 27 28 29
838
FTUS41 KOKX 121535 AAC
TAFGON
TAF AMD
KGON 121535Z 1216/1312 16013G20KT 6SM -SHRA BR SCT025 BKN040
      TEMPO 1216/1217 BKN020
     FM121700 18012KT P6SM VCSH SCT020 BKN040
     FM122100 23013KT 6SM -SHRA BR BKN025 OVC070
     FM130300 30014G21KT P6SM -SHSN BKN020 OVC040
     FM130700 30016G28KT P6SM SCT040 BKN100=

USA.gov is the U.S. government's official web portal to all federal, state and local government web resources and services.